Latest Weather Observations for Lajamanu

IDD60801

Issued at 2:01 pm CST Wednesday 1 July 2015 (issued every 30 minutes, with the page automatically refreshed every 10 minutes)

About weather observations | Map of weather stations | Latest weather observations for NT | Other Formats
Station Details ID: 014829 Name: LAJAMANU AIRPORT Lat: -18.33 Lon: 130.64 Height: 315.6 m
Data from the previous 72 hours. | See also: Recent months at Lajamanu
Date/Time
CST
Temp
°C
App
Temp
°C
Dew
Point
Rel
Hum
%
Delta-T
°C
Wind Press
QNH
hPa
Press
MSL
hPa
Rain
since 9 am
mm
Dir
 
Spd
km/h
Gust
km/h
Spd
kts
Gust
kts
01/02:00pm 27.4 23.6 9.7 33 9.9 ESE 20 28 11 15 1020.8 1020.1 0.0
01/01:30pm 26.7 22.4 9.5 34 9.6 E 22 35 12 19 1021.4 1020.7 0.0
01/01:00pm 26.2 21.8 9.1 34 9.5 ESE 22 37 12 20 1022.1 1021.4 0.0
01/12:30pm 25.2 20.7 8.7 35 9.0 ESE 22 35 12 19 1023.0 1022.2 0.0
01/12:00pm 24.5 20.1 8.9 37 8.5 E 22 33 12 18 1023.5 1022.8 0.0
01/11:30am 23.9 18.7 8.7 38 8.2 ESE 26 39 14 21 1024.0 1023.3 0.0
01/11:00am 23.4 17.9 9.0 40 7.9 ESE 28 37 15 20 1024.2 1023.5 0.0
01/10:30am 22.5 17.4 9.3 43 7.2 ESE 26 39 14 21 1024.4 1023.7 0.0
01/10:00am 21.2 15.7 9.1 46 6.5 ESE 28 41 15 22 1024.6 1023.9 0.0
01/09:30am 20.5 15.8 9.4 49 6.0 ESE 24 33 13 18 1024.5 1023.8 0.0
01/09:00am 18.9 14.9 9.1 53 5.2 ESE 20 30 11 16 1024.2 1023.4 0.0
01/08:30am 17.9 14.5 9.0 56 4.7 SE 17 26 9 14 1023.8 1023.0 0.0
01/08:00am 16.8 13.7 9.0 60 4.1 SE 15 20 8 11 1023.5 1022.7 0.0
01/07:30am 16.4 13.6 8.6 60 4.0 ESE 13 17 7 9 1023.1 1022.3 0.0
01/07:00am 16.7 13.2 8.7 59 4.2 SE 17 20 9 11 1022.6 1021.9 0.0
01/06:30am 17.2 14.0 8.6 57 4.5 ESE 15 20 8 11 1022.2 1021.5 0.0
01/06:00am 17.8 13.9 8.6 55 4.8 ESE 19 28 10 15 1021.9 1021.2 0.0
01/05:30am 17.5 14.3 8.4 55 4.7 E 15 22 8 12 1021.9 1021.2 0.0
01/05:00am 17.8 14.6 8.4 54 4.9 SE 15 20 8 11 1021.3 1020.5 0.0
01/04:30am 17.9 14.9 7.9 52 5.2 ESE 13 17 7 9 1021.3 1020.5 0.0
01/04:00am 18.5 15.2 8.2 51 5.4 ESE 15 24 8 13 1021.2 1020.4 0.0
01/03:30am 18.6 15.6 7.7 49 5.6 SE 13 15 7 8 1021.1 1020.3 0.0
01/03:00am 19.6 16.5 7.4 45 6.3 SE 13 17 7 9 1021.1 1020.3 0.0
01/02:30am 20.9 17.5 7.5 42 7.0 SE 15 22 8 12 1021.2 1020.4 0.0
01/02:00am 21.2 17.7 7.1 40 7.3 SE 15 22 8 12 1021.3 1020.5 0.0
01/01:30am 21.4 17.8 6.9 39 7.5 SE 15 20 8 11 1021.3 1020.5 0.0
01/01:00am 21.2 18.1 7.1 40 7.3 SE 13 20 7 11 1021.3 1020.5 0.0
01/12:30am 20.9 17.3 6.8 40 7.3 SE 15 20 8 11 1021.2 1020.4 0.0
01/12:00am 20.8 17.2 6.7 40 7.2 SE 15 20 8 11 1021.2 1020.4 0.0
 
Date/Time
CST
Temp
°C
App
Temp
°C
Dew
Point
Rel
Hum
%
Delta-T
°C
Wind Press
QNH
hPa
Press
MSL
hPa
Rain
since 9 am
mm
Dir
 
Spd
km/h
Gust
km/h
Spd
kts
Gust
kts
30/11:30pm 20.8 17.1 6.4 39 7.3 SE 15 19 8 10 1021.3 1020.5 0.0
30/11:00pm 21.1 17.4 6.2 38 7.6 SE 15 20 8 11 1021.3 1020.5 0.0
30/10:30pm 21.2 17.4 5.9 37 7.8 SE 15 19 8 10 1021.3 1020.5 0.0
30/10:00pm 20.1 17.0 5.7 39 7.2 SE 11 13 6 7 1021.1 1020.3 0.0
30/09:30pm 19.9 17.5 5.2 38 7.3 SE 7 11 4 6 1021.0 1020.2 0.0
30/09:00pm 20.7 18.1 4.3 34 8.0 ESE 7 9 4 5 1020.7 1019.9 0.0
30/08:30pm 22.0 19.1 4.6 32 8.7 ESE 9 11 5 6 1020.4 1019.6 0.0
30/08:00pm 22.2 19.4 5.2 33 8.6 SE 9 13 5 7 1020.0 1019.2 0.0
30/07:30pm 21.9 19.0 4.9 33 8.5 SSE 9 11 5 6 1019.7 1018.9 0.0
30/07:00pm 22.7 20.2 4.7 31 9.0 SE 7 9 4 5 1019.3 1018.6 0.0
30/06:30pm 24.1 20.7 4.0 27 10.0 SE 11 13 6 7 1019.2 1018.5 0.0
30/06:00pm 25.7 21.6 4.2 25 10.9 E 15 22 8 12 1018.9 1018.2 0.0
30/05:30pm 26.1 21.6 4.0 24 11.2 ESE 17 24 9 13 1018.8 1018.0 0.0
30/05:00pm 27.7 22.3 4.7 23 11.9 SE 22 33 12 18 1018.4 1017.6 0.0
30/04:30pm 28.1 23.6 4.4 22 12.2 ESE 17 28 9 15 1018.3 1017.5 0.0
30/04:00pm 28.3 24.1 3.9 21 12.5 ESE 15 24 8 13 1018.3 1017.5 0.0
30/03:30pm 28.4 23.9 4.0 21 12.5 ESE 17 26 9 14 1018.4 1017.6 0.0
30/03:00pm 28.1 23.5 3.7 21 12.4 E 17 24 9 13 1018.6 1017.8 0.0
30/02:30pm 28.3 23.4 3.9 21 12.5 ESE 19 32 10 17 1018.9 1018.2 0.0
30/02:00pm 28.0 22.9 4.3 22 12.2 SE 20 30 11 16 1019.5 1018.7 0.0
30/01:30pm 27.5 21.8 5.1 24 11.6 ESE 24 33 13 18 1019.9 1019.1 0.0
30/01:00pm 27.6 22.1 5.8 25 11.5 ESE 24 37 13 20 1020.5 1019.7 0.0
30/12:30pm 27.3 21.8 6.1 26 11.2 E 24 35 13 19 1021.2 1020.4 0.0
30/12:00pm 26.7 20.8 5.6 26 11.0 E 26 37 14 20 1021.6 1020.9 0.0
30/11:30am 26.5 21.0 6.0 27 10.8 ESE 24 32 13 17 1021.8 1021.1 0.0
30/11:00am 25.2 19.7 5.9 29 10.1 ESE 24 33 13 18 1022.1 1021.4 0.0
30/10:30am 23.8 18.2 5.2 30 9.5 ESE 24 33 13 18 1022.2 1021.5 0.0
30/10:00am 22.2 16.9 5.2 33 8.6 ESE 22 35 12 19 1022.4 1021.7 0.0
30/09:30am 19.8 15.2 5.5 39 7.1 SE 19 26 10 14 1022.4 1021.7 0.0
30/09:00am 17.0 14.3 5.6 47 5.6 SE 9 13 5 7 1022.2 1021.5 0.0
30/08:30am 13.9 11.6 4.8 54 4.3 S 6 9 3 5 1021.8 1021.1 0.0
30/08:00am 11.0 9.5 5.1 67 2.7 SW 2 6 1 3 1021.5 1020.7 0.0
30/07:30am 9.3 7.2 3.9 69 2.4 WNW 4 6 2 3 1021.0 1020.2 0.0
30/07:00am 9.6 7.5 4.0 68 2.5 W 4 6 2 3 1020.7 1019.9 0.0
30/06:30am 9.5 7.1 4.1 69 2.4 WSW 6 6 3 3 1020.4 1019.6 0.0
30/06:00am 9.3 6.7 3.3 66 2.6 SW 6 7 3 4 1020.3 1019.5 0.0
30/05:30am 10.0 7.4 3.3 63 3.0 SSW 6 7 3 4 1020.1 1019.3 0.0
30/05:00am 11.7 9.1 4.0 59 3.5 S 7 11 4 6 1020.0 1019.2 0.0
30/04:30am 11.6 9.0 4.3 61 3.3 ESE 7 11 4 6 1020.2 1019.4 0.0
30/04:00am 10.7 8.2 4.0 63 3.0 SSW 6 7 3 4 1019.9 1019.1 0.0
30/03:30am 11.2 9.1 4.0 61 3.3 SW 4 7 2 4 1020.0 1019.2 0.0
30/03:00am 11.7 9.7 4.2 60 3.4 SSE 4 7 2 4 1020.0 1019.2 0.0
30/02:30am 11.7 10.4 4.2 60 3.4 CALM 0 4 0 2 1020.2 1019.4 0.0
30/02:00am 12.1 9.7 4.3 59 3.6 SSE 6 7 3 4 1020.5 1019.7 0.0
30/01:30am 11.9 9.4 3.9 58 3.6 SSW 6 7 3 4 1020.4 1019.6 0.0
30/01:00am 12.4 11.1 4.1 57 3.8 CALM 0 0 0 0 1020.6 1019.8 0.0
30/12:30am 13.0 10.9 3.9 54 4.2 S 4 6 2 3 1020.4 1019.6 0.0
30/12:00am 14.1 11.6 3.6 49 4.8 SSE 6 7 3 4 1020.5 1019.7 0.0
 
Date/Time
CST
Temp
°C
App
Temp
°C
Dew
Point
Rel
Hum
%
Delta-T
°C
Wind Press
QNH
hPa
Press
MSL
hPa
Rain
since 9 am
mm
Dir
 
Spd
km/h
Gust
km/h
Spd
kts
Gust
kts
29/11:30pm 15.6 13.0 4.3 47 5.3 SSE 7 11 4 6 1020.8 1020.0 0.0
29/11:00pm 15.8 13.2 4.2 46 5.5 SE 7 9 4 5 1020.8 1020.0 0.0
29/10:30pm 16.3 13.4 4.7 46 5.5 SSE 9 13 5 7 1020.8 1020.0 0.0
29/10:00pm 16.0 13.1 4.4 46 5.5 SE 9 11 5 6 1020.7 1019.9 0.0
29/09:30pm 15.4 12.9 3.5 45 5.5 SE 6 9 3 5 1020.5 1019.7 0.0
29/09:00pm 15.9 13.5 4.3 46 5.5 SE 6 7 3 4 1020.4 1019.6 0.0
29/08:30pm 16.1 13.6 3.5 43 5.9 SE 6 7 3 4 1020.0 1019.2 0.0
29/08:00pm 17.9 15.1 3.4 38 6.9 ESE 7 7 4 4 1019.7 1018.9 0.0
29/07:30pm 18.7 15.9 2.9 35 7.4 E 7 9 4 5 1019.3 1018.6 0.0
29/07:00pm 20.2 17.0 3.0 32 8.2 E 9 11 5 6 1018.9 1018.2 0.0
29/06:30pm 22.4 19.1 2.5 27 9.5 E 9 11 5 6 1018.7 1017.9 0.0
29/06:00pm 25.0 21.3 2.4 23 11.0 E 11 15 6 8 1018.3 1017.5 0.0
29/05:30pm 26.6 23.7 2.5 21 11.9 ENE 7 11 4 6 1018.1 1017.3 0.0
29/05:00pm 27.0 23.6 2.1 20 12.3 E 9 17 5 9 1017.9 1017.1 0.0
29/04:30pm 27.7 24.8 2.7 20 12.5 ENE 7 15 4 8 1017.8 1017.0 0.0
29/04:00pm 27.7 24.4 2.7 20 12.5 NE 9 20 5 11 1017.8 1017.0 0.0
29/03:30pm 27.8 23.8 2.8 20 12.5 NE 13 26 7 14 1018.0 1017.2 0.0
29/03:00pm 27.8 24.2 2.8 20 12.5 NE 11 20 6 11 1018.1 1017.3 0.0
29/02:30pm 28.0 24.4 3.0 20 12.6 ENE 11 20 6 11 1018.5 1017.7 0.0
29/02:00pm 27.2 22.9 3.0 21 12.1 ENE 15 24 8 13 1019.0 1018.3 0.0
29/01:30pm 27.0 22.6 2.8 21 12.0 ENE 15 24 8 13 1019.7 1018.9 0.0
29/01:00pm 27.1 22.4 2.9 21 12.1 NE 17 26 9 14 1020.4 1019.6 0.0
29/12:30pm 26.4 21.4 3.6 23 11.5 ENE 19 33 10 18 1020.9 1020.1 0.0
29/12:00pm 25.1 19.8 3.1 24 10.9 E 20 30 11 16 1021.5 1020.7 0.0
29/11:30am 24.2 20.5 4.6 28 9.9 E 13 22 7 12 1021.9 1021.2 0.0
29/11:00am 23.3 18.4 4.3 29 9.5 E 19 30 10 16 1022.4 1021.7 0.0
29/10:30am 22.2 18.2 4.7 32 8.7 ESE 15 20 8 11 1022.5 1021.8 0.0
29/10:00am 20.4 15.9 4.0 34 8.0 ESE 17 22 9 12 1022.4 1021.7 0.0
29/09:30am 18.2 14.5 4.4 40 6.6 SE 13 20 7 11 1022.6 1021.9 0.0
29/09:00am 15.1 12.3 5.0 51 4.8 S 9 13 5 7 1022.5 1021.8 0.0
29/08:30am 13.2 10.2 4.1 54 4.2 SSE 9 13 5 7 1021.9 1021.2 0.0
29/08:00am 10.5 7.9 4.4 66 2.8 ESE 7 9 4 5 1021.3 1020.5 0.0
29/07:30am 9.2 6.1 3.6 68 2.5 ESE 9 9 5 5 1021.2 1020.4 0.0
29/07:00am 9.1 6.4 3.9 70 2.3 SSE 7 9 4 5 1021.2 1020.4 0.0
29/06:30am 8.3 5.6 3.8 73 2.0 S 7 11 4 6 1021.1 1020.3 0.0
29/06:00am 8.1 6.6 3.0 70 2.2 CALM 0 0 0 0 1020.6 1019.8 0.0
29/05:30am 8.2 5.7 3.7 73 2.0 SSW 6 9 3 5 1020.4 1019.6 0.0
29/05:00am 7.5 4.8 2.4 70 2.2 SW 6 9 3 5 1020.4 1019.6 0.0
29/04:30am 8.5 7.0 2.9 68 2.4 CALM 0 0 0 0 1020.0 1019.2 0.0
29/04:00am 9.1 7.6 3.1 66 2.6 CALM 0 0 0 0 1020.1 1019.3 0.0
29/03:30am 9.8 7.2 3.3 64 2.9 S 6 7 3 4 1020.3 1019.5 0.0
29/03:00am 10.3 7.5 2.9 60 3.2 S 7 9 4 5 1020.4 1019.6 0.0
29/02:30am 11.7 8.9 3.2 56 3.8 SSE 7 9 4 5 1020.5 1019.7 0.0
29/02:00am 12.3 9.6 3.5 55 4.0 SE 7 11 4 6 1020.9 1020.1 0.0
29/01:30am 11.1 8.6 3.6 60 3.4 SSW 6 9 3 5 1021.1 1020.3 0.0
29/01:00am 10.7 8.1 3.3 60 3.3 SSW 6 6 3 3 1021.1 1020.3 0.0
29/12:30am 11.7 9.2 3.5 57 3.7 WSW 6 7 3 4 1021.2 1020.4 0.0
29/12:00am 11.7 10.2 3.2 56 3.8 CALM 0 4 0 2 1021.3 1020.5 0.0
 
Date/Time
CST
Temp
°C
App
Temp
°C
Dew
Point
Rel
Hum
%
Delta-T
°C
Wind Press
QNH
hPa
Press
MSL
hPa
Rain
since 9 am
mm
Dir
 
Spd
km/h
Gust
km/h
Spd
kts
Gust
kts
28/11:30pm 11.9 9.2 2.9 54 4.0 S 6 6 3 3 1021.3 1020.5 0.0
28/11:00pm 12.9 10.3 3.3 52 4.4 SSE 6 7 3 4 1021.1 1020.3 0.0
28/10:30pm 12.9 10.1 3.0 51 4.4 SSE 7 7 4 4 1021.2 1020.4 0.0
28/10:00pm 14.0 11.1 2.6 46 5.1 SE 7 7 4 4 1021.2 1020.4 0.0
28/09:30pm 14.8 11.9 2.7 44 5.5 SE 7 13 4 7 1021.1 1020.3 0.0
28/09:00pm 14.4 11.7 2.6 45 5.3 SE 6 7 3 4 1021.1 1020.3 0.0
28/08:30pm 15.1 12.1 2.3 42 5.8 SE 7 9 4 5 1021.0 1020.2 0.0
28/08:00pm 16.1 13.2 2.5 40 6.2 SE 7 9 4 5 1020.8 1020.0 0.0
28/07:30pm 16.8 13.5 2.4 38 6.6 SE 9 9 5 5 1020.3 1019.5 0.0
28/07:00pm 17.5 14.8 2.7 37 6.9 SE 6 7 3 4 1020.0 1019.2 0.0
28/06:30pm 20.1 17.2 2.5 31 8.3 SSE 7 9 4 5 1019.8 1019.0 0.0
28/06:00pm 23.8 21.6 0.8 22 10.8 ESE 2 6 1 3 1019.7 1018.9 0.0
28/05:30pm 25.2 22.3 1.3 21 11.4 ENE 6 9 3 5 1019.5 1018.7 0.0
28/05:00pm 25.9 23.1 1.9 21 11.7 NE 6 9 3 5 1019.3 1018.6 0.0
28/04:30pm 25.5 21.6 0.9 20 11.7 ENE 11 15 6 8 1019.1 1018.4 0.0
28/04:00pm 26.2 23.1 1.5 20 12.0 NNE 7 13 4 7 1019.1 1018.4 0.0
28/03:30pm 26.0 22.1 1.3 20 11.9 NE 11 17 6 9 1019.3 1018.6 0.0
28/03:00pm 26.0 22.1 1.3 20 11.9 NNE 11 19 6 10 1019.6 1018.8 0.0
28/02:30pm 25.8 22.0 1.8 21 11.6 NE 11 19 6 10 1019.9 1019.1 0.0

Other Formats:

Comma delimited format used in spreadsheet applications
http://www.bom.gov.au/fwo/IDD60801/IDD60801.94231.axf

JavaScript Object Notation format (JSON) in row-major order
http://www.bom.gov.au/fwo/IDD60801/IDD60801.94231.json